Cave Ridge, Kentucky
Current Conditions -  °F | °C
As of 8:55 AM on Monday 22 Dec 2014 (Local Time) from KGLW Reporting Station
Broken Clouds Broken Clouds  
Wind Chill: 51°   Ceiling: 2700
Heat Index: 51°   Visibility: 10mi
Dew Point: 42°   Wind: 9mph
Humidity: 72%   Direction: 140°SE
Pressure: 29.94"   Gusts: NA
Location:  36.9886°N, 85.5829°W
Report Text: KGLW 221455Z AUTO 14008KT 10SM BKN027 10/06 A2994 RMK AO2 T01040055
Loading
Personal Weather Stations






























Interactive Weather Map New forecast layout! Learn more

10-Day Weather Forecast

Advertisements
Track Severe Weather on mobile